sensor_id;sensor_type;location;lat;lon;timestamp;pressure;altitude;pressure_sealevel;temperature;humidity
25560;BME280;13450;49.374;8.584;2023-04-21T00:02:24;100203.88;;;4.42;100.00
25560;BME280;13450;49.374;8.584;2023-04-21T00:04:51;100202.84;;;4.35;100.00
25560;BME280;13450;49.374;8.584;2023-04-21T00:07:19;100204.78;;;4.32;100.00
25560;BME280;13450;49.374;8.584;2023-04-21T00:09:45;100213.34;;;4.26;100.00
25560;BME280;13450;49.374;8.584;2023-04-21T00:12:10;100213.94;;;4.20;100.00
25560;BME280;13450;49.374;8.584;2023-04-21T00:14:36;100220.19;;;4.19;100.00
25560;BME280;13450;49.374;8.584;2023-04-21T00:17:04;100211.63;;;4.07;100.00
25560;BME280;13450;49.374;8.584;2023-04-21T00:19:32;100207.22;;;3.98;100.00
25560;BME280;13450;49.374;8.584;2023-04-21T00:21:59;100203.34;;;3.92;100.00
25560;BME280;13450;49.374;8.584;2023-04-21T00:24:25;100198.34;;;3.89;100.00
25560;BME280;13450;49.374;8.584;2023-04-21T00:26:51;100199.91;;;3.82;100.00
25560;BME280;13450;49.374;8.584;2023-04-21T00:29:18;100200.63;;;3.84;100.00
25560;BME280;13450;49.374;8.584;2023-04-21T00:31:44;100209.25;;;3.86;100.00
25560;BME280;13450;49.374;8.584;2023-04-21T00:34:09;100205.22;;;3.82;100.00
25560;BME280;13450;49.374;8.584;2023-04-21T00:36:34;100200.75;;;3.82;100.00
25560;BME280;13450;49.374;8.584;2023-04-21T00:39:00;100197.97;;;3.84;100.00
25560;BME280;13450;49.374;8.584;2023-04-21T00:41:27;100191.13;;;3.81;100.00
25560;BME280;13450;49.374;8.584;2023-04-21T00:44:05;100190.59;;;3.77;100.00
25560;BME280;13450;49.374;8.584;2023-04-21T00:46:31;100201.72;;;3.81;100.00
25560;BME280;13450;49.374;8.584;2023-04-21T00:48:57;100200.91;;;3.81;100.00
25560;BME280;13450;49.374;8.584;2023-04-21T00:51:23;100199.63;;;3.85;100.00
25560;BME280;13450;49.374;8.584;2023-04-21T00:53:50;100191.69;;;3.85;100.00
25560;BME280;13450;49.374;8.584;2023-04-21T00:56:17;100188.91;;;3.86;100.00
25560;BME280;13450;49.374;8.584;2023-04-21T00:58:44;100193.34;;;3.86;100.00
25560;BME280;13450;49.374;8.584;2023-04-21T01:01:12;100194.34;;;3.85;100.00
25560;BME280;13450;49.374;8.584;2023-04-21T01:03:37;100183.88;;;3.83;100.00
25560;BME280;13450;49.374;8.584;2023-04-21T01:06:03;100184.03;;;3.82;100.00
25560;BME280;13450;49.374;8.584;2023-04-21T01:08:28;100176.78;;;3.84;100.00
25560;BME280;13450;49.374;8.584;2023-04-21T01:10:54;100175.94;;;3.83;100.00
25560;BME280;13450;49.374;8.584;2023-04-21T01:13:21;100176.69;;;3.75;100.00
25560;BME280;13450;49.374;8.584;2023-04-21T01:15:49;100185.91;;;3.71;100.00
25560;BME280;13450;49.374;8.584;2023-04-21T01:18:17;100179.63;;;3.72;100.00
25560;BME280;13450;49.374;8.584;2023-04-21T01:20:43;100179.34;;;3.75;100.00
25560;BME280;13450;49.374;8.584;2023-04-21T01:23:09;100184.63;;;3.75;100.00
25560;BME280;13450;49.374;8.584;2023-04-21T01:25:37;100176.97;;;3.72;100.00
25560;BME280;13450;49.374;8.584;2023-04-21T01:28:02;100181.44;;;3.72;100.00
25560;BME280;13450;49.374;8.584;2023-04-21T01:30:27;100178.34;;;3.76;100.00
25560;BME280;13450;49.374;8.584;2023-04-21T01:32:55;100174.72;;;3.77;100.00
25560;BME280;13450;49.374;8.584;2023-04-21T01:35:22;100172.91;;;3.78;100.00
25560;BME280;13450;49.374;8.584;2023-04-21T01:37:48;100168.44;;;3.78;100.00
25560;BME280;13450;49.374;8.584;2023-04-21T01:40:13;100169.03;;;3.72;100.00
25560;BME280;13450;49.374;8.584;2023-04-21T01:42:40;100172.22;;;3.76;100.00
25560;BME280;13450;49.374;8.584;2023-04-21T01:45:07;100172.91;;;3.78;100.00
25560;BME280;13450;49.374;8.584;2023-04-21T01:47:33;100179.03;;;3.78;100.00
25560;BME280;13450;49.374;8.584;2023-04-21T01:49:59;100183.13;;;3.73;100.00
25560;BME280;13450;49.374;8.584;2023-04-21T01:52:24;100177.50;;;3.76;100.00
25560;BME280;13450;49.374;8.584;2023-04-21T01:54:50;100175.84;;;3.75;100.00
25560;BME280;13450;49.374;8.584;2023-04-21T01:57:16;100170.03;;;3.71;100.00
25560;BME280;13450;49.374;8.584;2023-04-21T01:59:42;100177.25;;;3.69;100.00
25560;BME280;13450;49.374;8.584;2023-04-21T02:02:07;100183.69;;;3.66;100.00
25560;BME280;13450;49.374;8.584;2023-04-21T02:04:34;100176.88;;;3.64;100.00
25560;BME280;13450;49.374;8.584;2023-04-21T02:07:02;100180.91;;;3.68;100.00
25560;BME280;13450;49.374;8.584;2023-04-21T02:09:27;100182.88;;;3.66;100.00
25560;BME280;13450;49.374;8.584;2023-04-21T02:11:57;100183.44;;;3.60;100.00
25560;BME280;13450;49.374;8.584;2023-04-21T02:14:23;100183.16;;;3.63;100.00
25560;BME280;13450;49.374;8.584;2023-04-21T02:16:49;100188.59;;;3.51;100.00
25560;BME280;13450;49.374;8.584;2023-04-21T02:19:16;100195.03;;;3.49;100.00
25560;BME280;13450;49.374;8.584;2023-04-21T02:21:42;100190.03;;;3.46;100.00
25560;BME280;13450;49.374;8.584;2023-04-21T02:24:08;100188.53;;;3.43;100.00
25560;BME280;13450;49.374;8.584;2023-04-21T02:26:33;100193.25;;;3.39;100.00
25560;BME280;13450;49.374;8.584;2023-04-21T02:28:59;100194.66;;;3.34;100.00
25560;BME280;13450;49.374;8.584;2023-04-21T02:31:24;100191.34;;;3.32;100.00
25560;BME280;13450;49.374;8.584;2023-04-21T02:33:50;100197.59;;;3.31;100.00
25560;BME280;13450;49.374;8.584;2023-04-21T02:36:15;100192.19;;;3.22;100.00
25560;BME280;13450;49.374;8.584;2023-04-21T02:38:40;100201.09;;;3.21;100.00
25560;BME280;13450;49.374;8.584;2023-04-21T02:41:06;100195.41;;;3.16;100.00
25560;BME280;13450;49.374;8.584;2023-04-21T02:43:31;100199.72;;;3.17;100.00
25560;BME280;13450;49.374;8.584;2023-04-21T02:45:56;100193.59;;;3.17;100.00
25560;BME280;13450;49.374;8.584;2023-04-21T02:48:22;100202.09;;;3.10;100.00
25560;BME280;13450;49.374;8.584;2023-04-21T02:50:48;100203.34;;;3.06;100.00
25560;BME280;13450;49.374;8.584;2023-04-21T02:53:18;100203.50;;;3.05;100.00
25560;BME280;13450;49.374;8.584;2023-04-21T02:55:43;100202.81;;;3.03;100.00
25560;BME280;13450;49.374;8.584;2023-04-21T02:58:09;100199.06;;;2.95;100.00
25560;BME280;13450;49.374;8.584;2023-04-21T03:00:34;100196.69;;;2.92;100.00
25560;BME280;13450;49.374;8.584;2023-04-21T03:03:02;100196.69;;;2.92;100.00
25560;BME280;13450;49.374;8.584;2023-04-21T03:05:28;100182.50;;;2.93;100.00
25560;BME280;13450;49.374;8.584;2023-04-21T03:07:53;100189.19;;;2.87;100.00
25560;BME280;13450;49.374;8.584;2023-04-21T03:10:18;100178.34;;;2.81;100.00
25560;BME280;13450;49.374;8.584;2023-04-21T03:12:46;100185.03;;;2.75;100.00
25560;BME280;13450;49.374;8.584;2023-04-21T03:15:12;100194.47;;;2.78;100.00
25560;BME280;13450;49.374;8.584;2023-04-21T03:17:42;100194.75;;;2.74;100.00
25560;BME280;13450;49.374;8.584;2023-04-21T03:20:08;100193.34;;;2.70;100.00
25560;BME280;13450;49.374;8.584;2023-04-21T03:22:35;100192.25;;;2.63;100.00
25560;BME280;13450;49.374;8.584;2023-04-21T03:25:00;100183.63;;;2.61;100.00
25560;BME280;13450;49.374;8.584;2023-04-21T03:27:25;100184.19;;;2.55;100.00
25560;BME280;13450;49.374;8.584;2023-04-21T03:29:51;100181.66;;;2.43;100.00
25560;BME280;13450;49.374;8.584;2023-04-21T03:32:16;100185.59;;;2.39;100.00
25560;BME280;13450;49.374;8.584;2023-04-21T03:34:42;100190.41;;;2.34;100.00
25560;BME280;13450;49.374;8.584;2023-04-21T03:37:07;100183.22;;;2.36;100.00
25560;BME280;13450;49.374;8.584;2023-04-21T03:39:32;100182.50;;;2.34;100.00
25560;BME280;13450;49.374;8.584;2023-04-21T03:41:58;100183.91;;;2.38;100.00
25560;BME280;13450;49.374;8.584;2023-04-21T03:44:26;100181.81;;;2.32;100.00
25560;BME280;13450;49.374;8.584;2023-04-21T03:46:53;100183.31;;;2.25;100.00
25560;BME280;13450;49.374;8.584;2023-04-21T03:49:20;100186.09;;;2.23;100.00
25560;BME280;13450;49.374;8.584;2023-04-21T03:51:46;100196.81;;;2.21;100.00
25560;BME280;13450;49.374;8.584;2023-04-21T03:54:11;100194.44;;;2.18;100.00
25560;BME280;13450;49.374;8.584;2023-04-21T03:56:39;100192.78;;;2.17;100.00
25560;BME280;13450;49.374;8.584;2023-04-21T03:59:04;100195.44;;;2.17;100.00
25560;BME280;13450;49.374;8.584;2023-04-21T04:01:48;100187.34;;;2.09;100.00
25560;BME280;13450;49.374;8.584;2023-04-21T04:04:13;100184.28;;;2.14;100.00
25560;BME280;13450;49.374;8.584;2023-04-21T04:06:39;100182.91;;;2.19;100.00
25560;BME280;13450;49.374;8.584;2023-04-21T04:09:04;100177.78;;;2.28;100.00
25560;BME280;13450;49.374;8.584;2023-04-21T04:11:30;100181.09;;;2.30;100.00
25560;BME280;13450;49.374;8.584;2023-04-21T04:13:56;100178.19;;;2.33;100.00
25560;BME280;13450;49.374;8.584;2023-04-21T04:16:22;100190.00;;;2.29;100.00
25560;BME280;13450;49.374;8.584;2023-04-21T04:18:48;100175.84;;;2.20;100.00
25560;BME280;13450;49.374;8.584;2023-04-21T04:21:16;100186.25;;;2.21;100.00
25560;BME280;13450;49.374;8.584;2023-04-21T04:23:41;100178.34;;;2.21;100.00
25560;BME280;13450;49.374;8.584;2023-04-21T04:26:08;100188.31;;;2.18;100.00
25560;BME280;13450;49.374;8.584;2023-04-21T04:28:35;100187.75;;;2.14;100.00
25560;BME280;13450;49.374;8.584;2023-04-21T04:31:01;100184.69;;;2.09;100.00
25560;BME280;13450;49.374;8.584;2023-04-21T04:33:28;100190.25;;;2.06;100.00
25560;BME280;13450;49.374;8.584;2023-04-21T04:35:54;100181.91;;;2.01;100.00
25560;BME280;13450;49.374;8.584;2023-04-21T04:38:20;100186.06;;;2.03;100.00
25560;BME280;13450;49.374;8.584;2023-04-21T04:40:52;100181.34;;;1.97;100.00
25560;BME280;13450;49.374;8.584;2023-04-21T04:43:18;100181.59;;;1.94;100.00
25560;BME280;13450;49.374;8.584;2023-04-21T04:45:43;100177.59;;;2.00;100.00
25560;BME280;13450;49.374;8.584;2023-04-21T04:48:09;100184.97;;;2.06;100.00
25560;BME280;13450;49.374;8.584;2023-04-21T04:50:35;100188.03;;;2.11;100.00
25560;BME280;13450;49.374;8.584;2023-04-21T04:53:00;100200.81;;;2.06;100.00
25560;BME280;13450;49.374;8.584;2023-04-21T04:55:25;100197.19;;;2.07;100.00
25560;BME280;13450;49.374;8.584;2023-04-21T04:57:51;100196.06;;;2.00;100.00
25560;BME280;13450;49.374;8.584;2023-04-21T05:00:17;100197.75;;;2.01;100.00
25560;BME280;13450;49.374;8.584;2023-04-21T05:02:42;100194.41;;;2.08;100.00
25560;BME280;13450;49.374;8.584;2023-04-21T05:05:08;100190.53;;;2.13;100.00
25560;BME280;13450;49.374;8.584;2023-04-21T05:07:33;100185.97;;;2.15;100.00
25560;BME280;13450;49.374;8.584;2023-04-21T05:10:01;100194.19;;;2.21;100.00
25560;BME280;13450;49.374;8.584;2023-04-21T05:12:29;100204.44;;;2.25;100.00
25560;BME280;13450;49.374;8.584;2023-04-21T05:14:57;100206.69;;;2.29;100.00
25560;BME280;13450;49.374;8.584;2023-04-21T05:17:22;100204.19;;;2.28;100.00
25560;BME280;13450;49.374;8.584;2023-04-21T05:19:47;100209.22;;;2.31;100.00
25560;BME280;13450;49.374;8.584;2023-04-21T05:22:13;100206.97;;;2.36;100.00
25560;BME280;13450;49.374;8.584;2023-04-21T05:24:40;100206.97;;;2.36;100.00
25560;BME280;13450;49.374;8.584;2023-04-21T05:27:05;100222.84;;;2.36;100.00
25560;BME280;13450;49.374;8.584;2023-04-21T05:29:31;100214.66;;;2.39;100.00
25560;BME280;13450;49.374;8.584;2023-04-21T05:32:01;100213.66;;;2.50;100.00
25560;BME280;13450;49.374;8.584;2023-04-21T05:34:26;100217.97;;;2.61;100.00
25560;BME280;13450;49.374;8.584;2023-04-21T05:36:52;100222.44;;;2.70;100.00
25560;BME280;13450;49.374;8.584;2023-04-21T05:39:17;100221.47;;;2.71;100.00
25560;BME280;13450;49.374;8.584;2023-04-21T05:41:43;100219.78;;;2.80;100.00
25560;BME280;13450;49.374;8.584;2023-04-21T05:44:08;100221.47;;;2.91;100.00
25560;BME280;13450;49.374;8.584;2023-04-21T05:46:33;100225.91;;;3.00;100.00
25560;BME280;13450;49.374;8.584;2023-04-21T05:49:02;100223.66;;;3.06;100.00
25560;BME280;13450;49.374;8.584;2023-04-21T05:51:27;100225.59;;;3.13;100.00
25560;BME280;13450;49.374;8.584;2023-04-21T05:53:52;100229.75;;;3.26;100.00
25560;BME280;13450;49.374;8.584;2023-04-21T05:56:18;100232.13;;;3.29;100.00
25560;BME280;13450;49.374;8.584;2023-04-21T05:58:43;100228.91;;;3.35;100.00
25560;BME280;13450;49.374;8.584;2023-04-21T06:01:08;100232.22;;;3.47;100.00
25560;BME280;13450;49.374;8.584;2023-04-21T06:03:34;100231.06;;;3.60;100.00
25560;BME280;13450;49.374;8.584;2023-04-21T06:06:01;100235.81;;;3.66;100.00
25560;BME280;13450;49.374;8.584;2023-04-21T06:08:27;100241.34;;;3.73;100.00
25560;BME280;13450;49.374;8.584;2023-04-21T06:10:52;100239.63;;;3.82;100.00
25560;BME280;13450;49.374;8.584;2023-04-21T06:13:18;100244.03;;;3.91;100.00
25560;BME280;13450;49.374;8.584;2023-04-21T06:15:43;100252.38;;;3.96;100.00
25560;BME280;13450;49.374;8.584;2023-04-21T06:18:08;100250.97;;;4.02;100.00
25560;BME280;13450;49.374;8.584;2023-04-21T06:20:34;100242.66;;;4.15;100.00
25560;BME280;13450;49.374;8.584;2023-04-21T06:22:59;100252.78;;;4.29;100.00
25560;BME280;13450;49.374;8.584;2023-04-21T06:25:25;100251.13;;;4.47;100.00
25560;BME280;13450;49.374;8.584;2023-04-21T06:27:54;100248.66;;;4.63;100.00
25560;BME280;13450;49.374;8.584;2023-04-21T06:30:20;100243.59;;;4.70;100.00
25560;BME280;13450;49.374;8.584;2023-04-21T06:32:45;100244.19;;;4.82;100.00
25560;BME280;13450;49.374;8.584;2023-04-21T06:35:12;100237.19;;;4.99;100.00
25560;BME280;13450;49.374;8.584;2023-04-21T06:37:39;100236.19;;;5.18;100.00
25560;BME280;13450;49.374;8.584;2023-04-21T06:40:05;100246.09;;;5.34;100.00
25560;BME280;13450;49.374;8.584;2023-04-21T06:42:30;100246.22;;;5.51;100.00
25560;BME280;13450;49.374;8.584;2023-04-21T06:44:55;100247.88;;;5.52;100.00
25560;BME280;13450;49.374;8.584;2023-04-21T06:47:21;100232.28;;;5.57;100.00
25560;BME280;13450;49.374;8.584;2023-04-21T06:49:46;100240.63;;;5.62;100.00
25560;BME280;13450;49.374;8.584;2023-04-21T06:52:12;100243.97;;;5.65;100.00
25560;BME280;13450;49.374;8.584;2023-04-21T06:54:39;100234.50;;;5.70;100.00
25560;BME280;13450;49.374;8.584;2023-04-21T06:57:05;100231.19;;;5.68;100.00
25560;BME280;13450;49.374;8.584;2023-04-21T06:59:30;100228.28;;;5.53;100.00
25560;BME280;13450;49.374;8.584;2023-04-21T07:01:56;100238.13;;;5.34;100.00
25560;BME280;13450;49.374;8.584;2023-04-21T07:04:21;100232.03;;;5.16;100.00
25560;BME280;13450;49.374;8.584;2023-04-21T07:06:46;100234.03;;;4.95;100.00
25560;BME280;13450;49.374;8.584;2023-04-21T07:09:12;100224.28;;;4.78;100.00
25560;BME280;13450;49.374;8.584;2023-04-21T07:11:38;100224.03;;;4.71;100.00
25560;BME280;13450;49.374;8.584;2023-04-21T07:14:03;100226.63;;;4.63;100.00
25560;BME280;13450;49.374;8.584;2023-04-21T07:16:29;100233.06;;;4.60;100.00
25560;BME280;13450;49.374;8.584;2023-04-21T07:18:54;100231.91;;;4.63;100.00
25560;BME280;13450;49.374;8.584;2023-04-21T07:21:19;100231.53;;;4.57;100.00
25560;BME280;13450;49.374;8.584;2023-04-21T07:23:45;100232.22;;;4.60;100.00
25560;BME280;13450;49.374;8.584;2023-04-21T07:26:10;100228.66;;;4.69;100.00
25560;BME280;13450;49.374;8.584;2023-04-21T07:28:36;100233.19;;;5.13;100.00
25560;BME280;13450;49.374;8.584;2023-04-21T07:31:04;100232.16;;;5.32;100.00
25560;BME280;13450;49.374;8.584;2023-04-21T07:33:29;100231.28;;;5.58;100.00
25560;BME280;13450;49.374;8.584;2023-04-21T07:35:55;100223.06;;;5.70;100.00
25560;BME280;13450;49.374;8.584;2023-04-21T07:38:20;100234.41;;;5.80;100.00
25560;BME280;13450;49.374;8.584;2023-04-21T07:40:48;100230.44;;;5.84;100.00
25560;BME280;13450;49.374;8.584;2023-04-21T07:43:13;100226.31;;;5.90;100.00
25560;BME280;13450;49.374;8.584;2023-04-21T07:45:39;100217.50;;;5.89;100.00
25560;BME280;13450;49.374;8.584;2023-04-21T07:48:04;100212.00;;;6.09;100.00
25560;BME280;13450;49.374;8.584;2023-04-21T07:50:30;100219.34;;;6.40;100.00
25560;BME280;13450;49.374;8.584;2023-04-21T07:52:56;100209.09;;;6.71;100.00
25560;BME280;13450;49.374;8.584;2023-04-21T07:55:23;100207.59;;;7.01;100.00
25560;BME280;13450;49.374;8.584;2023-04-21T07:57:49;100202.28;;;7.10;100.00
25560;BME280;13450;49.374;8.584;2023-04-21T08:00:14;100208.59;;;7.17;100.00
25560;BME280;13450;49.374;8.584;2023-04-21T08:02:43;100197.41;;;7.30;100.00
25560;BME280;13450;49.374;8.584;2023-04-21T08:05:08;100196.22;;;7.41;100.00
25560;BME280;13450;49.374;8.584;2023-04-21T08:07:33;100195.38;;;7.49;100.00
25560;BME280;13450;49.374;8.584;2023-04-21T08:10:01;100190.59;;;7.36;100.00
25560;BME280;13450;49.374;8.584;2023-04-21T08:12:27;100190.75;;;7.42;100.00
25560;BME280;13450;49.374;8.584;2023-04-21T08:14:52;100191.03;;;7.56;100.00
25560;BME280;13450;49.374;8.584;2023-04-21T08:17:17;100194.66;;;7.71;100.00
25560;BME280;13450;49.374;8.584;2023-04-21T08:19:43;100202.72;;;7.87;100.00
25560;BME280;13450;49.374;8.584;2023-04-21T08:22:11;100192.19;;;8.02;100.00
25560;BME280;13450;49.374;8.584;2023-04-21T08:24:36;100196.63;;;8.09;100.00
25560;BME280;13450;49.374;8.584;2023-04-21T08:27:03;100191.44;;;8.16;100.00
25560;BME280;13450;49.374;8.584;2023-04-21T08:29:28;100185.06;;;8.49;100.00
25560;BME280;13450;49.374;8.584;2023-04-21T08:31:53;100187.72;;;8.81;100.00
25560;BME280;13450;49.374;8.584;2023-04-21T08:34:19;100181.84;;;9.00;100.00
25560;BME280;13450;49.374;8.584;2023-04-21T08:36:45;100175.31;;;9.03;100.00
25560;BME280;13450;49.374;8.584;2023-04-21T08:39:21;100178.38;;;9.15;100.00
25560;BME280;13450;49.374;8.584;2023-04-21T08:41:51;100182.19;;;9.36;100.00
25560;BME280;13450;49.374;8.584;2023-04-21T08:44:16;100171.78;;;9.41;100.00
25560;BME280;13450;49.374;8.584;2023-04-21T08:46:47;100173.81;;;9.39;100.00
25560;BME280;13450;49.374;8.584;2023-04-21T08:49:20;100168.94;;;9.42;100.00
25560;BME280;13450;49.374;8.584;2023-04-21T08:51:47;100178.22;;;9.62;100.00
25560;BME280;13450;49.374;8.584;2023-04-21T08:54:13;100163.09;;;9.69;100.00
25560;BME280;13450;49.374;8.584;2023-04-21T08:56:40;100162.75;;;9.72;100.00
25560;BME280;13450;49.374;8.584;2023-04-21T08:59:08;100156.84;;;9.77;100.00
25560;BME280;13450;49.374;8.584;2023-04-21T09:04:43;100146.50;;;9.89;100.00
25560;BME280;13450;49.374;8.584;2023-04-21T09:07:09;100149.06;;;9.97;100.00
25560;BME280;13450;49.374;8.584;2023-04-21T09:14:45;100146.53;;;10.32;100.00
25560;BME280;13450;49.374;8.584;2023-04-21T09:19:45;100134.84;;;10.55;100.00
25560;BME280;13450;49.374;8.584;2023-04-21T09:22:15;100129.59;;;10.69;100.00
25560;BME280;13450;49.374;8.584;2023-04-21T09:24:45;100126.03;;;10.83;100.00
25560;BME280;13450;49.374;8.584;2023-04-21T09:27:14;100122.00;;;10.94;100.00
25560;BME280;13450;49.374;8.584;2023-04-21T09:29:45;100123.28;;;11.05;100.00
25560;BME280;13450;49.374;8.584;2023-04-21T09:32:11;100116.16;;;11.19;100.00
25560;BME280;13450;49.374;8.584;2023-04-21T09:34:41;100123.06;;;11.35;100.00
25560;BME280;13450;49.374;8.584;2023-04-21T09:37:11;100118.19;;;11.52;100.00
25560;BME280;13450;49.374;8.584;2023-04-21T09:39:37;100117.03;;;11.69;100.00
25560;BME280;13450;49.374;8.584;2023-04-21T09:42:03;100119.13;;;11.80;100.00
25560;BME280;13450;49.374;8.584;2023-04-21T09:44:28;100121.63;;;11.88;100.00
25560;BME280;13450;49.374;8.584;2023-04-21T09:46:59;100127.28;;;12.07;100.00
25560;BME280;13450;49.374;8.584;2023-04-21T09:49:34;100118.41;;;12.20;100.00
25560;BME280;13450;49.374;8.584;2023-04-21T09:52:01;100121.13;;;12.40;100.00
25560;BME280;13450;49.374;8.584;2023-04-21T09:54:32;100113.91;;;12.61;100.00
25560;BME280;13450;49.374;8.584;2023-04-21T09:57:02;100106.50;;;12.84;100.00
25560;BME280;13450;49.374;8.584;2023-04-21T09:59:32;100103.78;;;13.04;100.00
25560;BME280;13450;49.374;8.584;2023-04-21T10:01:59;100096.09;;;13.14;100.00
25560;BME280;13450;49.374;8.584;2023-04-21T10:04:27;100101.25;;;13.23;100.00
25560;BME280;13450;49.374;8.584;2023-04-21T10:06:55;100100.22;;;13.24;100.00
25560;BME280;13450;49.374;8.584;2023-04-21T10:09:22;100095.66;;;13.31;100.00
25560;BME280;13450;49.374;8.584;2023-04-21T10:11:53;100089.03;;;13.27;100.00
25560;BME280;13450;49.374;8.584;2023-04-21T10:14:35;100090.00;;;13.39;100.00
25560;BME280;13450;49.374;8.584;2023-04-21T10:17:07;100090.16;;;13.58;100.00
25560;BME280;13450;49.374;8.584;2023-04-21T10:19:35;100091.41;;;13.62;100.00
25560;BME280;13450;49.374;8.584;2023-04-21T10:22:08;100093.03;;;13.70;100.00
25560;BME280;13450;49.374;8.584;2023-04-21T10:24:43;100094.22;;;13.81;100.00
25560;BME280;13450;49.374;8.584;2023-04-21T10:27:34;100082.56;;;13.94;100.00
25560;BME280;13450;49.374;8.584;2023-04-21T10:30:20;100088.19;;;14.18;100.00
25560;BME280;13450;49.374;8.584;2023-04-21T10:33:03;100083.22;;;14.21;100.00
25560;BME280;13450;49.374;8.584;2023-04-21T10:35:58;100077.53;;;14.62;100.00
25560;BME280;13450;49.374;8.584;2023-04-21T10:38:41;100079.00;;;14.58;100.00
25560;BME280;13450;49.374;8.584;2023-04-21T10:41:28;100070.72;;;14.85;100.00
25560;BME280;13450;49.374;8.584;2023-04-21T10:43:58;100066.53;;;15.08;100.00
25560;BME280;13450;49.374;8.584;2023-04-21T10:46:33;100068.38;;;15.45;100.00
25560;BME280;13450;49.374;8.584;2023-04-21T10:49:10;100067.94;;;15.78;100.00
25560;BME280;13450;49.374;8.584;2023-04-21T10:54:42;100050.97;;;17.04;100.00
25560;BME280;13450;49.374;8.584;2023-04-21T10:57:11;100056.25;;;17.81;100.00
25560;BME280;13450;49.374;8.584;2023-04-21T10:59:37;100041.91;;;18.83;96.40
25560;BME280;13450;49.374;8.584;2023-04-21T11:02:07;100041.06;;;20.33;92.27
25560;BME280;13450;49.374;8.584;2023-04-21T11:04:35;100035.94;;;21.38;70.36
25560;BME280;13450;49.374;8.584;2023-04-21T11:07:19;100026.91;;;23.04;58.55
25560;BME280;13450;49.374;8.584;2023-04-21T11:09:46;100026.69;;;24.80;52.09
25560;BME280;13450;49.374;8.584;2023-04-21T11:12:16;100024.56;;;25.83;48.68
25560;BME280;13450;49.374;8.584;2023-04-21T11:14:44;100022.53;;;27.12;43.74
25560;BME280;13450;49.374;8.584;2023-04-21T11:17:14;100030.78;;;27.12;42.15
25560;BME280;13450;49.374;8.584;2023-04-21T11:19:40;100017.59;;;27.60;40.85
25560;BME280;13450;49.374;8.584;2023-04-21T11:22:06;100032.63;;;28.22;42.02
25560;BME280;13450;49.374;8.584;2023-04-21T11:24:31;100024.84;;;28.47;38.03
25560;BME280;13450;49.374;8.584;2023-04-21T11:26:57;100025.16;;;28.86;37.07
25560;BME280;13450;49.374;8.584;2023-04-21T11:29:25;100018.06;;;28.94;36.98
25560;BME280;13450;49.374;8.584;2023-04-21T11:31:50;100021.84;;;29.16;34.59
25560;BME280;13450;49.374;8.584;2023-04-21T11:34:19;100029.03;;;29.70;33.79
25560;BME280;13450;49.374;8.584;2023-04-21T11:36:47;100012.66;;;29.65;36.36
25560;BME280;13450;49.374;8.584;2023-04-21T11:39:16;100007.44;;;28.61;36.62
25560;BME280;13450;49.374;8.584;2023-04-21T11:41:48;100008.75;;;28.72;36.95
25560;BME280;13450;49.374;8.584;2023-04-21T11:44:30;99996.00;;;28.13;36.20
25560;BME280;13450;49.374;8.584;2023-04-21T11:46:56;99991.88;;;29.41;34.72
25560;BME280;13450;49.374;8.584;2023-04-21T11:49:25;99991.72;;;29.10;34.11
25560;BME280;13450;49.374;8.584;2023-04-21T11:51:53;99986.38;;;29.85;34.07
25560;BME280;13450;49.374;8.584;2023-04-21T11:54:19;99986.03;;;29.95;35.18
25560;BME280;13450;49.374;8.584;2023-04-21T11:56:48;99992.22;;;29.66;33.43
25560;BME280;13450;49.374;8.584;2023-04-21T11:59:16;99996.56;;;29.14;37.31
25560;BME280;13450;49.374;8.584;2023-04-21T12:01:50;99989.13;;;29.23;34.49
25560;BME280;13450;49.374;8.584;2023-04-21T12:04:18;99991.59;;;29.60;33.95
25560;BME280;13450;49.374;8.584;2023-04-21T12:06:45;99981.34;;;29.78;33.71
25560;BME280;13450;49.374;8.584;2023-04-21T12:09:19;99986.56;;;29.53;35.41
25560;BME280;13450;49.374;8.584;2023-04-21T12:11:48;99990.28;;;29.57;34.51
25560;BME280;13450;49.374;8.584;2023-04-21T12:14:16;99985.22;;;29.42;37.36
25560;BME280;13450;49.374;8.584;2023-04-21T12:16:42;99984.31;;;30.69;35.71
25560;BME280;13450;49.374;8.584;2023-04-21T12:19:07;99983.13;;;29.83;33.10
25560;BME280;13450;49.374;8.584;2023-04-21T12:21:32;99985.81;;;30.57;34.82
25560;BME280;13450;49.374;8.584;2023-04-21T12:24:01;99981.47;;;29.91;34.38
25560;BME280;13450;49.374;8.584;2023-04-21T12:26:26;99984.41;;;29.94;35.43
25560;BME280;13450;49.374;8.584;2023-04-21T12:28:52;99992.06;;;29.71;33.63
25560;BME280;13450;49.374;8.584;2023-04-21T12:31:17;99984.84;;;30.53;32.92
25560;BME280;13450;49.374;8.584;2023-04-21T12:33:43;99978.84;;;30.21;35.05
25560;BME280;13450;49.374;8.584;2023-04-21T12:36:08;99979.91;;;30.76;33.35
25560;BME280;13450;49.374;8.584;2023-04-21T12:38:34;99982.81;;;31.99;33.25
25560;BME280;13450;49.374;8.584;2023-04-21T12:40:59;99975.81;;;32.02;30.89
25560;BME280;13450;49.374;8.584;2023-04-21T12:43:25;99974.50;;;32.58;31.40
25560;BME280;13450;49.374;8.584;2023-04-21T12:45:50;99976.72;;;31.38;31.78
25560;BME280;13450;49.374;8.584;2023-04-21T12:48:19;99972.41;;;31.50;30.66
25560;BME280;13450;49.374;8.584;2023-04-21T12:50:45;99958.78;;;31.44;31.83
25560;BME280;13450;49.374;8.584;2023-04-21T12:53:13;99965.25;;;31.27;31.58
25560;BME280;13450;49.374;8.584;2023-04-21T12:55:41;99956.84;;;31.24;31.70
25560;BME280;13450;49.374;8.584;2023-04-21T12:58:08;99957.72;;;31.70;30.48
25560;BME280;13450;49.374;8.584;2023-04-21T13:00:36;99969.16;;;32.40;31.00
25560;BME280;13450;49.374;8.584;2023-04-21T13:03:02;99961.78;;;32.57;31.41
25560;BME280;13450;49.374;8.584;2023-04-21T13:05:28;99966.75;;;32.64;29.21